createdAt,value
2022-10-04T00:01:48.982Z,9.90
2022-10-04T00:04:20.187Z,8.70
2022-10-04T00:07:04.101Z,8.30
2022-10-04T00:09:43.718Z,9.20
2022-10-04T00:12:22.032Z,10.93
2022-10-04T00:14:52.127Z,11.75
2022-10-04T00:17:27.348Z,10.02
2022-10-04T00:19:55.492Z,10.73
2022-10-04T00:22:31.525Z,10.43
2022-10-04T00:25:17.970Z,10.85
2022-10-04T00:28:36.843Z,9.52
2022-10-04T00:31:07.522Z,10.40
2022-10-04T00:33:45.770Z,8.57
2022-10-04T00:36:25.412Z,11.07
2022-10-04T00:39:07.933Z,10.48
2022-10-04T00:41:55.191Z,9.07
2022-10-04T00:44:25.466Z,9.15
2022-10-04T00:46:55.182Z,9.10
2022-10-04T00:49:27.037Z,9.45
2022-10-04T00:51:58.408Z,10.10
2022-10-04T00:54:41.589Z,10.75
2022-10-04T00:57:15.344Z,14.73
2022-10-04T00:59:50.723Z,10.18
2022-10-04T01:02:26.609Z,12.93
2022-10-04T01:05:10.723Z,11.15
2022-10-04T01:07:53.064Z,13.05
2022-10-04T01:10:25.111Z,9.43
2022-10-04T01:13:09.767Z,10.63
2022-10-04T01:15:55.351Z,9.88
2022-10-04T01:18:23.013Z,11.05
2022-10-04T01:20:53.957Z,14.25
2022-10-04T01:23:43.945Z,11.93
2022-10-04T01:26:26.728Z,11.50
2022-10-04T01:28:55.261Z,15.20
2022-10-04T01:31:23.300Z,12.85
2022-10-04T01:33:51.078Z,14.48
2022-10-04T01:36:19.021Z,15.50
2022-10-04T01:38:47.509Z,13.68
2022-10-04T01:41:20.001Z,11.93
2022-10-04T01:43:52.592Z,12.48
2022-10-04T01:46:27.504Z,13.07
2022-10-04T01:48:57.269Z,13.15
2022-10-04T01:51:31.721Z,12.45
2022-10-04T01:54:05.700Z,13.73
2022-10-04T01:56:43.355Z,15.60
2022-10-04T01:59:31.915Z,12.57
2022-10-04T02:02:17.612Z,15.50
2022-10-04T02:04:52.671Z,13.88
2022-10-04T02:07:21.761Z,16.02
2022-10-04T02:09:55.091Z,16.00
2022-10-04T02:12:22.916Z,13.20
2022-10-04T02:14:53.552Z,15.52
2022-10-04T02:17:28.537Z,14.40
2022-10-04T02:19:57.571Z,15.43
2022-10-04T02:22:26.380Z,33.20
2022-10-04T02:24:57.043Z,16.52
2022-10-04T02:27:31.310Z,16.30
2022-10-04T02:30:10.728Z,22.23
2022-10-04T02:32:58.047Z,19.20
2022-10-04T02:35:29.884Z,17.00
2022-10-04T02:38:19.193Z,16.70
2022-10-04T02:41:04.636Z,16.15
2022-10-04T02:44:11.438Z,17.23
2022-10-04T02:46:45.009Z,14.90
2022-10-04T02:49:17.647Z,15.57
2022-10-04T02:52:18.747Z,15.27
2022-10-04T02:54:49.517Z,16.50
2022-10-04T02:57:22.355Z,15.05
2022-10-04T02:59:51.332Z,13.35
2022-10-04T03:02:30.164Z,19.30
2022-10-04T03:05:08.495Z,13.88
2022-10-04T03:07:37.297Z,12.55
2022-10-04T03:10:13.501Z,15.38
2022-10-04T03:12:41.682Z,12.63
2022-10-04T03:15:12.969Z,14.70
2022-10-04T03:17:43.981Z,16.45
2022-10-04T03:20:16.210Z,12.25
2022-10-04T03:22:47.139Z,13.85
2022-10-04T03:25:21.514Z,13.23
2022-10-04T03:27:51.283Z,17.77
2022-10-04T03:30:22.125Z,14.50
2022-10-04T03:32:50.497Z,15.65
2022-10-04T03:35:39.393Z,15.77
2022-10-04T03:38:11.454Z,13.77
2022-10-04T03:40:43.531Z,15.32
2022-10-04T03:43:14.071Z,11.05
2022-10-04T03:45:42.344Z,14.50
2022-10-04T03:48:15.427Z,16.85
2022-10-04T03:50:49.270Z,13.55
2022-10-04T03:53:37.308Z,13.90
2022-10-04T03:56:31.664Z,13.55
2022-10-04T03:59:02.515Z,14.82
2022-10-04T04:01:41.192Z,14.10
2022-10-04T04:04:17.911Z,18.35
2022-10-04T04:06:51.455Z,16.27
2022-10-04T04:12:21.747Z,14.93
2022-10-04T04:14:52.149Z,18.98
2022-10-04T04:17:33.896Z,17.25
2022-10-04T04:20:07.585Z,14.88
2022-10-04T04:22:37.042Z,21.52
2022-10-04T04:25:09.130Z,16.20
2022-10-04T04:27:40.665Z,15.90
2022-10-04T04:30:09.474Z,14.82
2022-10-04T04:32:41.662Z,16.60
2022-10-04T04:35:25.563Z,14.90
2022-10-04T04:40:32.706Z,17.70
2022-10-04T04:43:02.588Z,15.50
2022-10-04T04:45:33.238Z,16.00
2022-10-04T04:48:03.724Z,15.52
2022-10-04T04:50:39.910Z,16.98
2022-10-04T04:53:27.690Z,15.07
2022-10-04T04:56:03.754Z,16.00
2022-10-04T04:58:43.499Z,15.00
2022-10-04T05:01:45.374Z,15.98
2022-10-04T05:04:13.300Z,15.73
2022-10-04T05:06:44.858Z,13.32
2022-10-04T05:09:28.482Z,14.73
2022-10-04T05:12:07.282Z,23.20
2022-10-04T05:14:39.734Z,13.48
2022-10-04T05:17:07.628Z,16.95
2022-10-04T05:19:40.163Z,17.48
2022-10-04T05:22:13.580Z,16.10
2022-10-04T05:24:47.032Z,12.38
2022-10-04T05:30:06.266Z,14.98
2022-10-04T05:33:00.535Z,20.60
2022-10-04T05:35:29.862Z,17.50
2022-10-04T05:38:30.955Z,15.65
2022-10-04T05:41:09.097Z,16.45
2022-10-04T05:43:44.676Z,17.58
2022-10-04T05:46:21.437Z,18.88
2022-10-04T05:48:55.863Z,16.95
2022-10-04T05:51:26.995Z,16.13
2022-10-04T05:53:57.662Z,16.10
2022-10-04T05:56:31.218Z,15.23
2022-10-04T06:02:03.673Z,16.23
2022-10-04T06:04:48.322Z,18.83
2022-10-04T06:07:22.590Z,17.98
2022-10-04T06:10:00.396Z,19.55
2022-10-04T06:12:44.555Z,15.77
2022-10-04T06:15:31.858Z,12.93
2022-10-04T06:18:07.781Z,15.25
2022-10-04T06:20:58.166Z,18.20
2022-10-04T06:23:29.256Z,17.52
2022-10-04T06:26:08.072Z,17.02
2022-10-04T06:28:46.677Z,18.10
2022-10-04T06:31:25.860Z,17.77
2022-10-04T06:34:37.406Z,16.63
2022-10-04T06:37:23.240Z,14.25
2022-10-04T06:40:15.404Z,18.13
2022-10-04T06:42:58.052Z,20.77
2022-10-04T06:45:37.687Z,16.45
2022-10-04T06:48:20.617Z,15.07
2022-10-04T06:51:36.061Z,19.33
2022-10-04T06:54:43.066Z,17.90
2022-10-04T06:57:22.882Z,17.73
2022-10-04T07:00:13.857Z,19.55
2022-10-04T07:02:52.665Z,18.38
2022-10-04T07:06:01.405Z,17.65
2022-10-04T07:08:56.193Z,16.23
2022-10-04T07:11:37.329Z,18.77
2022-10-04T07:14:16.825Z,16.17
2022-10-04T07:16:56.112Z,17.00
2022-10-04T07:19:45.524Z,16.65
2022-10-04T07:22:26.247Z,19.02
2022-10-04T07:24:56.681Z,20.45
2022-10-04T07:27:27.189Z,19.67
2022-10-04T07:29:58.165Z,21.90
2022-10-04T07:32:29.988Z,21.15
2022-10-04T07:35:09.527Z,23.73
2022-10-04T07:38:00.277Z,21.35
2022-10-04T07:40:30.577Z,19.70
2022-10-04T07:43:04.881Z,19.45
2022-10-04T07:45:40.046Z,23.67
2022-10-04T07:48:23.342Z,19.50
2022-10-04T07:50:56.639Z,18.67
2022-10-04T07:53:29.569Z,22.48
2022-10-04T07:56:08.651Z,21.25
2022-10-04T07:58:55.401Z,20.13
2022-10-04T08:01:35.411Z,18.88
2022-10-04T08:04:05.863Z,22.52
2022-10-04T08:06:38.193Z,18.98
2022-10-04T08:09:21.971Z,19.63
2022-10-04T08:12:24.510Z,16.67
2022-10-04T08:15:23.762Z,16.48
2022-10-04T08:18:17.669Z,22.30
2022-10-04T08:20:50.437Z,18.50
2022-10-04T08:23:39.943Z,18.05
2022-10-04T08:26:13.671Z,19.58
2022-10-04T08:29:36.771Z,19.15
2022-10-04T08:32:37.551Z,20.20
2022-10-04T08:35:30.321Z,14.35
2022-10-04T08:51:46.936Z,12.00
2022-10-04T08:54:39.330Z,13.70
2022-10-04T08:57:47.623Z,11.18
2022-10-04T09:00:37.467Z,10.40
2022-10-04T09:03:27.269Z,11.10
2022-10-04T09:06:27.390Z,9.82
2022-10-04T09:09:04.835Z,8.93
2022-10-04T09:11:52.235Z,8.65
2022-10-04T09:14:26.268Z,9.85
2022-10-04T09:17:07.879Z,11.52
2022-10-04T09:19:41.640Z,8.57
2022-10-04T09:22:18.703Z,8.02
2022-10-04T09:25:09.137Z,8.00
2022-10-04T09:27:55.488Z,9.90
2022-10-04T09:30:45.065Z,14.30
2022-10-04T09:33:21.830Z,21.35
2022-10-04T09:36:16.354Z,15.40
2022-10-04T09:39:25.157Z,11.38
2022-10-04T09:42:00.333Z,9.88
2022-10-04T09:44:55.681Z,12.70
2022-10-04T09:47:37.833Z,12.75
2022-10-04T09:51:08.091Z,11.90
2022-10-04T09:53:46.504Z,10.30
2022-10-04T09:56:29.166Z,10.07
2022-10-04T09:59:16.772Z,11.75
2022-10-04T10:02:13.190Z,11.90
2022-10-04T10:05:19.490Z,10.98
2022-10-04T10:07:56.498Z,10.75
2022-10-04T10:10:59.772Z,10.68
2022-10-04T10:13:43.384Z,11.18
2022-10-04T10:16:45.157Z,9.65
2022-10-04T10:19:31.256Z,9.80
2022-10-04T10:22:18.050Z,9.88
2022-10-04T10:25:23.176Z,8.02
2022-10-04T10:28:19.301Z,7.95
2022-10-04T10:31:11.676Z,8.80
2022-10-04T10:34:05.047Z,8.85
2022-10-04T10:37:12.440Z,8.18
2022-10-04T10:39:58.091Z,8.80
2022-10-04T10:42:50.281Z,7.28
2022-10-04T10:45:21.268Z,8.60
2022-10-04T10:48:01.860Z,9.38
2022-10-04T10:51:00.334Z,6.60
2022-10-04T10:54:13.768Z,7.78
2022-10-04T10:57:19.947Z,5.93
2022-10-04T11:00:02.534Z,5.38
2022-10-04T11:03:13.559Z,6.50
2022-10-04T11:05:51.322Z,5.15
2022-10-04T11:09:07.682Z,5.80
2022-10-04T11:12:05.798Z,6.25
2022-10-04T11:15:07.012Z,8.75
2022-10-04T11:18:00.212Z,5.78
2022-10-04T11:20:30.914Z,6.57
2022-10-04T11:23:26.348Z,8.85
2022-10-04T11:26:14.130Z,6.00
2022-10-04T11:28:49.289Z,6.07
2022-10-04T11:31:32.684Z,7.07
2022-10-04T11:34:19.360Z,5.30
2022-10-04T11:36:50.106Z,7.35
2022-10-04T11:39:30.467Z,5.82
2022-10-04T11:42:20.512Z,6.40
2022-10-04T11:45:15.371Z,4.32
2022-10-04T11:47:55.435Z,4.18
2022-10-04T11:50:41.652Z,4.30
2022-10-04T11:53:30.156Z,5.05
2022-10-04T11:56:38.126Z,5.32
2022-10-04T11:59:37.491Z,5.75
2022-10-04T12:02:47.475Z,6.93
2022-10-04T12:05:36.787Z,7.38
2022-10-04T12:08:36.181Z,6.43
2022-10-04T12:11:52.084Z,6.25
2022-10-04T12:14:40.427Z,7.03
2022-10-04T12:17:11.215Z,5.57
2022-10-04T12:19:45.052Z,7.25
2022-10-04T12:22:37.216Z,7.40
2022-10-04T12:25:32.325Z,6.53
2022-10-04T12:28:27.313Z,5.75
2022-10-04T12:31:11.500Z,8.13
2022-10-04T12:34:16.746Z,8.07
2022-10-04T12:36:53.362Z,5.68
2022-10-04T12:39:45.059Z,9.05
2022-10-04T12:42:46.963Z,7.32
2022-10-04T12:45:53.008Z,6.40
2022-10-04T12:48:39.051Z,6.03
2022-10-04T12:51:29.803Z,7.32
2022-10-04T12:54:35.003Z,7.95
2022-10-04T12:57:52.373Z,8.85
2022-10-04T13:00:25.246Z,7.70
2022-10-04T13:03:32.270Z,5.85
2022-10-04T13:06:30.972Z,7.72
2022-10-04T13:09:20.667Z,6.30
2022-10-04T13:12:15.564Z,7.78
2022-10-04T13:15:01.150Z,8.05
2022-10-04T13:17:42.292Z,6.78
2022-10-04T13:20:13.493Z,10.15
2022-10-04T13:23:09.997Z,8.90
2022-10-04T13:26:15.617Z,8.45
2022-10-04T13:29:05.069Z,7.78
2022-10-04T13:31:38.317Z,8.25
2022-10-04T13:34:12.037Z,6.85
2022-10-04T13:36:51.337Z,10.93
2022-10-04T13:39:30.651Z,9.43
2022-10-04T13:42:12.657Z,10.38
2022-10-04T13:44:46.449Z,7.47
2022-10-04T13:47:14.482Z,9.15
2022-10-04T13:49:48.281Z,10.90
2022-10-04T13:52:40.542Z,7.25
2022-10-04T13:55:50.939Z,9.63
2022-10-04T13:58:45.853Z,7.28
2022-10-04T14:01:51.026Z,10.25
2022-10-04T14:04:47.797Z,8.48
2022-10-04T14:07:27.608Z,11.73
2022-10-04T14:10:31.724Z,8.60
2022-10-04T14:13:06.184Z,8.60
2022-10-04T14:15:39.671Z,9.20
2022-10-04T14:18:27.420Z,8.02
2022-10-04T14:21:19.971Z,9.48
2022-10-04T14:24:02.739Z,9.63
2022-10-04T14:26:31.243Z,8.52
2022-10-04T14:29:10.979Z,9.27
2022-10-04T14:32:00.392Z,8.77
2022-10-04T14:34:56.130Z,9.48
2022-10-04T14:37:26.908Z,9.15
2022-10-04T14:40:32.175Z,7.60
2022-10-04T14:43:29.820Z,8.80
2022-10-04T14:46:07.568Z,10.57
2022-10-04T14:48:50.207Z,8.48
2022-10-04T14:51:25.543Z,10.20
2022-10-04T14:54:02.331Z,7.93
2022-10-04T14:56:30.182Z,7.95
2022-10-04T14:59:14.927Z,9.52
2022-10-04T15:02:11.236Z,8.93
2022-10-04T15:04:58.302Z,13.73
2022-10-04T15:07:37.165Z,9.40
2022-10-04T15:10:22.177Z,10.60
2022-10-04T15:13:16.592Z,14.35
2022-10-04T15:15:54.333Z,11.00
2022-10-04T15:18:48.156Z,11.60
2022-10-04T15:21:32.461Z,12.98
2022-10-04T15:24:13.992Z,11.65
2022-10-04T15:27:15.354Z,11.57
2022-10-04T15:29:49.149Z,10.80
2022-10-04T15:32:48.676Z,10.85
2022-10-04T15:35:25.806Z,12.05
2022-10-04T15:38:32.831Z,11.73
2022-10-04T15:41:07.373Z,9.90
2022-10-04T15:44:06.018Z,10.93
2022-10-04T15:47:08.935Z,11.52
2022-10-04T15:49:54.917Z,10.48
2022-10-04T15:52:45.799Z,10.07
2022-10-04T15:55:22.588Z,9.40
2022-10-04T15:58:16.756Z,10.43
2022-10-04T16:01:04.099Z,10.45
2022-10-04T16:03:43.568Z,12.63
2022-10-04T16:06:40.222Z,9.50
2022-10-04T16:09:25.883Z,10.70
2022-10-04T16:12:19.170Z,12.23
2022-10-04T16:15:15.705Z,10.07
2022-10-04T16:17:58.870Z,11.05
2022-10-04T16:21:06.267Z,13.27
2022-10-04T16:23:40.213Z,11.95
2022-10-04T16:26:33.913Z,10.45
2022-10-04T16:29:35.429Z,12.23
2022-10-04T16:32:17.297Z,13.25
2022-10-04T16:34:58.709Z,13.35
2022-10-04T16:37:46.717Z,17.50
2022-10-04T16:40:26.867Z,15.50
2022-10-04T16:43:04.058Z,27.05
2022-10-04T16:46:23.286Z,20.90
2022-10-04T16:48:58.939Z,21.77
2022-10-04T16:51:44.290Z,16.13
2022-10-04T16:54:46.501Z,19.75
2022-10-04T16:57:22.562Z,17.80
2022-10-04T17:00:21.561Z,19.27
2022-10-04T17:03:16.291Z,16.02
2022-10-04T17:05:49.891Z,12.63
2022-10-04T17:08:17.896Z,13.57
2022-10-04T17:11:28.968Z,12.55
2022-10-04T17:14:06.968Z,16.27
2022-10-04T17:16:47.686Z,12.27
2022-10-04T17:19:16.192Z,21.98
2022-10-04T17:22:06.987Z,20.00
2022-10-04T17:24:43.783Z,23.20
2022-10-04T17:27:38.840Z,16.38
2022-10-04T17:30:18.803Z,15.20
2022-10-04T17:33:07.742Z,12.15
2022-10-04T17:36:14.922Z,16.10
2022-10-04T17:39:07.584Z,14.02
2022-10-04T17:41:54.941Z,12.57
2022-10-04T17:44:52.011Z,11.90
2022-10-04T17:47:56.552Z,13.35
2022-10-04T17:51:00.849Z,12.20
2022-10-04T17:56:50.482Z,14.13
2022-10-04T17:59:30.021Z,14.95
2022-10-04T18:02:11.160Z,12.80
2022-10-04T18:04:48.807Z,13.38
2022-10-04T18:07:22.087Z,14.45
2022-10-04T18:12:31.976Z,12.23
2022-10-04T18:15:18.107Z,13.68
2022-10-04T18:17:50.936Z,13.50
2022-10-04T18:20:31.358Z,11.85
2022-10-04T18:23:02.773Z,10.25
2022-10-04T18:25:32.396Z,10.88
2022-10-04T18:28:07.705Z,12.73
2022-10-04T18:30:51.316Z,10.57
2022-10-04T18:33:26.712Z,13.13
2022-10-04T18:36:01.051Z,10.77
2022-10-04T18:38:30.531Z,11.20
2022-10-04T18:41:17.675Z,10.43
2022-10-04T18:44:13.618Z,11.07
2022-10-04T18:46:43.012Z,12.73
2022-10-04T18:49:35.037Z,17.85
2022-10-04T18:52:12.643Z,12.32
2022-10-04T18:55:06.071Z,10.13
2022-10-04T18:57:59.243Z,10.30
2022-10-04T19:01:02.651Z,12.63
2022-10-04T19:03:43.389Z,14.10
2022-10-04T19:06:19.778Z,15.55
2022-10-04T19:09:12.312Z,12.05
2022-10-04T19:11:55.310Z,12.65
2022-10-04T19:14:49.880Z,13.60
2022-10-04T19:17:43.341Z,13.60
2022-10-04T19:20:19.995Z,14.73
2022-10-04T19:23:07.731Z,16.33
2022-10-04T19:25:41.245Z,14.25
2022-10-04T19:28:15.459Z,14.52
2022-10-04T19:31:05.024Z,16.05
2022-10-04T19:33:44.549Z,13.95
2022-10-04T19:36:32.684Z,14.65
2022-10-04T19:39:18.620Z,15.00
2022-10-04T19:41:49.610Z,14.98
2022-10-04T19:44:35.627Z,16.45
2022-10-04T19:47:22.526Z,14.75
2022-10-04T19:50:11.103Z,12.20
2022-10-04T19:53:05.627Z,16.50
2022-10-04T19:55:45.484Z,14.68
2022-10-04T19:58:22.925Z,13.73
2022-10-04T20:00:51.447Z,14.73
2022-10-04T20:03:20.598Z,12.43
2022-10-04T20:05:51.240Z,16.17
2022-10-04T20:08:45.377Z,13.43
2022-10-04T20:11:19.416Z,14.00
2022-10-04T20:14:10.845Z,13.27
2022-10-04T20:16:48.429Z,15.90
2022-10-04T20:19:28.615Z,13.68
2022-10-04T20:22:08.714Z,16.20
2022-10-04T20:24:37.054Z,16.98
2022-10-04T20:27:30.410Z,14.95
2022-10-04T20:30:04.184Z,15.30
2022-10-04T20:32:37.350Z,18.25
2022-10-04T20:35:10.801Z,19.95
2022-10-04T20:37:44.488Z,16.08
2022-10-04T20:40:35.249Z,16.67
2022-10-04T20:43:15.226Z,16.88
2022-10-04T20:45:47.732Z,17.60
2022-10-04T20:48:29.743Z,17.98
2022-10-04T20:51:10.786Z,16.45
2022-10-04T20:53:46.795Z,16.20
2022-10-04T20:56:19.077Z,16.13
2022-10-04T20:58:59.713Z,15.18
2022-10-04T21:01:38.235Z,13.50
2022-10-04T21:04:15.840Z,16.38
2022-10-04T21:06:54.529Z,16.60
2022-10-04T21:09:23.653Z,17.63
2022-10-04T21:11:53.064Z,13.93
2022-10-04T21:14:23.676Z,16.63
2022-10-04T21:17:01.480Z,15.98
2022-10-04T21:19:30.398Z,14.65
2022-10-04T21:22:03.157Z,14.07
2022-10-04T21:24:39.843Z,17.08
2022-10-04T21:27:12.900Z,17.83
2022-10-04T21:29:40.995Z,16.45
2022-10-04T21:32:09.255Z,16.98
2022-10-04T21:34:54.063Z,15.48
2022-10-04T21:37:22.871Z,16.75
2022-10-04T21:39:50.903Z,17.45
2022-10-04T21:42:18.692Z,15.85
2022-10-04T21:44:46.559Z,17.13
2022-10-04T21:47:14.552Z,17.85
2022-10-04T21:49:43.187Z,15.02
2022-10-04T21:52:11.167Z,15.18
2022-10-04T21:54:39.290Z,18.63
2022-10-04T21:57:07.268Z,18.38
2022-10-04T21:59:35.266Z,16.00
2022-10-04T22:02:03.962Z,17.42
2022-10-04T22:04:31.874Z,16.38
2022-10-04T22:06:59.874Z,16.30
2022-10-04T22:09:27.755Z,14.05
2022-10-04T22:11:55.713Z,15.20
2022-10-04T22:14:23.460Z,16.20
2022-10-04T22:16:52.163Z,18.85
2022-10-04T22:19:20.404Z,15.20
2022-10-04T22:21:48.583Z,16.52
2022-10-04T22:24:20.582Z,18.05
2022-10-04T22:26:49.001Z,14.55
2022-10-04T22:29:18.896Z,18.52
2022-10-04T22:31:51.049Z,17.30
2022-10-04T22:34:21.743Z,14.30
2022-10-04T22:36:51.413Z,13.50
2022-10-04T22:39:20.450Z,14.82
2022-10-04T22:41:58.159Z,16.65
2022-10-04T22:44:29.450Z,15.27
2022-10-04T22:47:00.312Z,18.05
2022-10-04T22:49:31.970Z,14.32
2022-10-04T22:52:03.016Z,15.63
2022-10-04T22:54:35.667Z,15.10
2022-10-04T22:57:04.008Z,14.32
2022-10-04T22:59:39.953Z,16.60
2022-10-04T23:02:15.545Z,14.70
2022-10-04T23:04:52.568Z,15.43
2022-10-04T23:07:21.376Z,19.23
2022-10-04T23:09:49.633Z,14.32
2022-10-04T23:12:17.482Z,16.50
2022-10-04T23:14:45.383Z,13.75
2022-10-04T23:17:25.323Z,14.40
2022-10-04T23:19:56.439Z,12.95
2022-10-04T23:22:28.200Z,12.75
2022-10-04T23:24:56.892Z,14.70
2022-10-04T23:27:24.911Z,14.68
2022-10-04T23:30:04.436Z,14.63
2022-10-04T23:32:33.012Z,15.98
2022-10-04T23:35:04.132Z,12.13
2022-10-04T23:37:32.717Z,14.13
2022-10-04T23:40:00.885Z,14.05
2022-10-04T23:42:32.294Z,12.63
2022-10-04T23:45:01.836Z,14.43
2022-10-04T23:47:35.416Z,15.70
2022-10-04T23:52:45.617Z,14.38
2022-10-04T23:55:21.720Z,12.82
2022-10-04T23:57:51.243Z,14.45
